createdAt,value
2023-02-14T00:01:20.500Z,38.67
2023-02-14T00:03:47.659Z,41.20
2023-02-14T00:06:14.901Z,40.70
2023-02-14T00:08:44.731Z,35.73
2023-02-14T00:11:13.134Z,34.77
2023-02-14T00:13:39.945Z,36.77
2023-02-14T00:16:06.980Z,37.90
2023-02-14T00:18:52.527Z,36.13
2023-02-14T00:21:19.249Z,43.60
2023-02-14T00:23:45.945Z,36.60
2023-02-14T00:26:15.894Z,36.10
2023-02-14T00:28:43.039Z,38.30
2023-02-14T00:31:10.399Z,37.47
2023-02-14T00:33:37.812Z,40.80
2023-02-14T00:36:06.894Z,36.10
2023-02-14T00:38:34.131Z,37.90
2023-02-14T00:41:01.163Z,34.70
2023-02-14T00:43:28.061Z,36.97
2023-02-14T00:45:55.229Z,36.07
2023-02-14T00:48:21.975Z,48.63
2023-02-14T00:50:48.718Z,40.37
2023-02-14T00:53:15.465Z,43.47
2023-02-14T00:55:45.259Z,51.53
2023-02-14T00:58:12.057Z,53.33
2023-02-14T01:00:38.812Z,56.53
2023-02-14T01:03:05.594Z,74.23
2023-02-14T01:05:32.745Z,118.07
2023-02-14T01:07:59.439Z,119.60
2023-02-14T01:10:26.538Z,165.43
2023-02-14T01:12:53.286Z,186.43
2023-02-14T01:15:20.375Z,170.57
2023-02-14T01:17:47.103Z,143.87
2023-02-14T01:20:14.773Z,88.00
2023-02-14T01:22:41.758Z,112.47
2023-02-14T01:25:08.615Z,106.30
2023-02-14T01:27:35.448Z,97.77
2023-02-14T01:30:02.165Z,96.23
2023-02-14T01:32:31.652Z,48.83
2023-02-14T01:34:58.726Z,58.07
2023-02-14T01:37:25.513Z,69.90
2023-02-14T01:39:52.287Z,59.17
2023-02-14T01:42:19.064Z,49.13
2023-02-14T01:44:45.742Z,62.53
2023-02-14T01:47:13.572Z,52.70
2023-02-14T01:49:52.413Z,147.57
2023-02-14T01:52:26.275Z,69.87
2023-02-14T01:54:58.095Z,107.60
2023-02-14T01:57:30.595Z,56.13
2023-02-14T02:00:19.714Z,75.80
2023-02-14T02:02:47.061Z,104.83
2023-02-14T02:05:14.896Z,119.57
2023-02-14T02:07:42.411Z,129.33
2023-02-14T02:10:09.698Z,142.40
2023-02-14T02:12:36.875Z,97.80
2023-02-14T02:15:05.217Z,145.67
2023-02-14T02:17:59.637Z,165.00
2023-02-14T02:20:43.536Z,144.33
2023-02-14T02:23:51.068Z,173.53
2023-02-14T02:26:23.636Z,104.23
2023-02-14T02:29:20.438Z,106.33
2023-02-14T02:32:07.034Z,111.67
2023-02-14T02:35:11.574Z,102.40
2023-02-14T02:38:23.346Z,73.43
2023-02-14T02:41:28.493Z,109.13
2023-02-14T02:43:55.644Z,97.50
2023-02-14T02:46:47.563Z,111.33
2023-02-14T02:50:00.660Z,76.50
2023-02-14T02:53:06.339Z,113.23
2023-02-14T02:56:09.151Z,104.00
2023-02-14T02:59:00.652Z,78.27
2023-02-14T03:01:33.795Z,98.17
2023-02-14T03:04:24.037Z,228.97
2023-02-14T03:06:51.851Z,111.13
2023-02-14T03:09:27.379Z,151.27
2023-02-14T03:12:12.523Z,471.57
2023-02-14T03:14:56.110Z,349.30
2023-02-14T03:17:29.960Z,144.57
2023-02-14T03:20:16.082Z,193.50
2023-02-14T03:22:52.863Z,155.63
2023-02-14T03:25:39.718Z,199.73
2023-02-14T03:28:15.344Z,108.23
2023-02-14T03:31:21.219Z,177.37
2023-02-14T03:34:00.454Z,64.63
2023-02-14T03:36:33.869Z,119.33
2023-02-14T03:39:17.765Z,199.33
2023-02-14T03:42:14.841Z,83.20
2023-02-14T03:44:43.584Z,93.33
2023-02-14T03:47:14.263Z,85.20
2023-02-14T03:49:46.465Z,133.10
2023-02-14T03:52:15.323Z,90.03
2023-02-14T03:54:43.604Z,95.70
2023-02-14T03:57:28.639Z,138.43
2023-02-14T03:59:56.418Z,133.03
2023-02-14T04:02:37.695Z,129.23
2023-02-14T04:05:16.936Z,82.63
2023-02-14T04:07:49.313Z,101.87
2023-02-14T04:10:17.625Z,114.77
2023-02-14T04:12:44.770Z,126.90
2023-02-14T04:15:12.293Z,132.23
2023-02-14T04:17:58.109Z,198.20
2023-02-14T04:20:25.678Z,148.43
2023-02-14T04:22:52.858Z,63.50
2023-02-14T04:25:20.868Z,112.20
2023-02-14T04:27:47.850Z,134.60
2023-02-14T04:30:16.499Z,65.53
2023-02-14T04:32:43.521Z,101.80
2023-02-14T04:35:10.401Z,82.13
2023-02-14T04:37:37.173Z,74.93
2023-02-14T04:40:04.289Z,67.97
2023-02-14T04:42:30.996Z,60.47
2023-02-14T04:44:58.831Z,91.80
2023-02-14T04:47:25.909Z,77.83
2023-02-14T04:49:52.591Z,71.43
2023-02-14T04:52:19.271Z,94.93
2023-02-14T04:54:46.036Z,68.00
2023-02-14T04:57:12.694Z,129.67
2023-02-14T04:59:39.400Z,74.40
2023-02-14T05:02:06.518Z,94.73
2023-02-14T05:04:33.645Z,65.03
2023-02-14T05:07:00.363Z,151.43
2023-02-14T05:09:27.182Z,175.13
2023-02-14T05:11:53.920Z,66.60
2023-02-14T05:14:20.759Z,130.30
2023-02-14T05:16:47.526Z,156.83
2023-02-14T05:19:14.381Z,144.57
2023-02-14T05:21:41.338Z,181.73
2023-02-14T05:24:08.469Z,98.13
2023-02-14T05:26:35.231Z,132.57
2023-02-14T05:29:01.985Z,99.23
2023-02-14T05:31:28.859Z,135.27
2023-02-14T05:33:55.662Z,108.37
2023-02-14T05:36:22.445Z,116.33
2023-02-14T05:38:49.220Z,134.50
2023-02-14T05:41:15.917Z,212.53
2023-02-14T05:43:43.061Z,160.60
2023-02-14T05:46:09.844Z,249.63
2023-02-14T05:48:36.708Z,196.40
2023-02-14T05:51:05.389Z,236.43
2023-02-14T05:53:32.570Z,119.97
2023-02-14T05:55:59.329Z,223.40
2023-02-14T05:58:26.150Z,216.27
2023-02-14T06:00:52.832Z,105.40
2023-02-14T06:03:19.580Z,113.07
2023-02-14T06:05:46.289Z,190.80
2023-02-14T06:08:12.968Z,172.80
2023-02-14T06:10:40.123Z,173.23
2023-02-14T06:13:08.846Z,87.13
2023-02-14T06:15:38.798Z,175.17
2023-02-14T06:18:05.885Z,177.37
2023-02-14T06:20:32.779Z,219.63
2023-02-14T06:22:59.884Z,97.13
2023-02-14T06:25:26.971Z,59.17
2023-02-14T06:27:58.074Z,167.30
2023-02-14T06:30:25.601Z,138.13
2023-02-14T06:32:52.881Z,113.23
2023-02-14T06:35:19.994Z,152.27
2023-02-14T06:37:46.733Z,108.57
2023-02-14T06:40:14.342Z,119.03
2023-02-14T06:42:41.419Z,72.13
2023-02-14T06:45:08.942Z,129.97
2023-02-14T06:47:35.656Z,114.47
2023-02-14T06:50:05.086Z,181.03
2023-02-14T06:52:33.487Z,140.63
2023-02-14T06:55:00.294Z,128.87
2023-02-14T06:57:27.406Z,97.27
2023-02-14T06:59:54.190Z,107.37
2023-02-14T07:02:24.633Z,124.77
2023-02-14T07:04:51.790Z,161.90
2023-02-14T07:07:18.518Z,116.90
2023-02-14T07:09:45.240Z,169.60
2023-02-14T07:12:12.083Z,119.40
2023-02-14T07:14:38.953Z,109.17
2023-02-14T07:17:06.111Z,118.77
2023-02-14T07:19:32.854Z,203.77
2023-02-14T07:21:59.614Z,218.63
2023-02-14T07:24:26.509Z,169.23
2023-02-14T07:26:53.629Z,155.63
2023-02-14T07:29:20.558Z,127.93
2023-02-14T07:31:47.760Z,201.57
2023-02-14T07:34:14.635Z,128.73
2023-02-14T07:36:41.479Z,77.17
2023-02-14T07:39:08.648Z,95.27
2023-02-14T07:41:35.407Z,59.43
2023-02-14T07:44:02.489Z,108.10
2023-02-14T07:46:29.218Z,81.20
2023-02-14T07:48:56.003Z,108.17
2023-02-14T07:51:23.221Z,117.00
2023-02-14T07:53:50.380Z,63.17
2023-02-14T07:56:17.070Z,144.10
2023-02-14T07:58:43.847Z,112.63
2023-02-14T08:01:10.677Z,61.53
2023-02-14T08:03:37.496Z,84.10
2023-02-14T08:06:04.367Z,211.30
2023-02-14T08:08:32.387Z,103.97
2023-02-14T08:10:59.978Z,136.17
2023-02-14T08:13:26.983Z,117.87
2023-02-14T08:16:07.743Z,217.97
2023-02-14T08:18:42.289Z,101.67
2023-02-14T08:21:11.155Z,79.13
2023-02-14T08:23:38.552Z,164.40
2023-02-14T08:26:05.514Z,90.37
2023-02-14T08:28:33.263Z,107.57
2023-02-14T08:31:00.980Z,167.60
2023-02-14T08:33:28.359Z,60.03
2023-02-14T08:35:55.410Z,46.20
2023-02-14T08:38:22.480Z,69.30
2023-02-14T08:40:49.240Z,98.43
2023-02-14T08:43:16.093Z,152.43
2023-02-14T08:45:43.018Z,113.87
2023-02-14T08:48:12.105Z,110.73
2023-02-14T08:50:39.799Z,75.67
2023-02-14T08:53:08.620Z,81.57
2023-02-14T08:55:36.128Z,126.17
2023-02-14T08:58:03.644Z,82.33
2023-02-14T09:00:31.302Z,62.20
2023-02-14T09:02:58.356Z,87.50
2023-02-14T09:05:26.462Z,45.23
2023-02-14T09:07:56.006Z,24.90
2023-02-14T09:10:23.298Z,21.27
2023-02-14T09:12:50.953Z,24.83
2023-02-14T09:15:17.770Z,22.87
2023-02-14T09:17:44.761Z,24.90
2023-02-14T09:20:13.451Z,23.97
2023-02-14T09:22:40.249Z,22.03
2023-02-14T09:25:07.341Z,25.93
2023-02-14T09:27:34.206Z,20.90
2023-02-14T09:30:01.290Z,25.73
2023-02-14T09:32:29.219Z,30.47
2023-02-14T09:35:14.647Z,36.20
2023-02-14T09:38:00.680Z,33.17
2023-02-14T09:40:27.560Z,24.97
2023-02-14T09:43:02.430Z,25.33
2023-02-14T09:45:30.904Z,22.17
2023-02-14T09:48:10.005Z,23.83
2023-02-14T09:50:48.500Z,35.67
2023-02-14T09:53:46.322Z,35.63
2023-02-14T09:56:45.992Z,36.30
2023-02-14T09:59:47.007Z,22.47
2023-02-14T10:02:47.626Z,29.70
2023-02-14T10:05:32.317Z,25.73
2023-02-14T10:08:02.083Z,39.97
2023-02-14T10:10:59.407Z,27.23
2023-02-14T10:13:31.682Z,34.67
2023-02-14T10:16:16.840Z,49.60
2023-02-14T10:18:52.153Z,39.37
2023-02-14T10:21:34.114Z,26.20
2023-02-14T10:24:05.446Z,28.90
2023-02-14T10:26:41.391Z,23.67
2023-02-14T10:29:16.168Z,27.90
2023-02-14T10:31:50.221Z,37.33
2023-02-14T10:34:35.079Z,29.63
2023-02-14T10:37:22.939Z,30.30
2023-02-14T10:39:59.677Z,31.07
2023-02-14T10:42:34.037Z,30.20
2023-02-14T10:45:14.832Z,27.23
2023-02-14T10:47:59.585Z,26.93
2023-02-14T10:50:37.156Z,26.00
2023-02-14T10:53:29.767Z,24.97
2023-02-14T10:56:05.742Z,23.37
2023-02-14T10:58:36.731Z,32.20
2023-02-14T11:01:15.565Z,24.63
2023-02-14T11:03:58.525Z,27.40
2023-02-14T11:06:25.294Z,25.10
2023-02-14T11:08:52.040Z,40.50
2023-02-14T11:11:21.644Z,29.80
2023-02-14T11:13:48.807Z,33.23
2023-02-14T11:16:30.932Z,25.63
2023-02-14T11:19:15.780Z,23.57
2023-02-14T11:21:44.734Z,24.63
2023-02-14T11:24:28.645Z,34.53
2023-02-14T11:27:02.569Z,33.63
2023-02-14T11:29:41.337Z,31.93
2023-02-14T11:32:23.862Z,28.87
2023-02-14T11:34:58.048Z,30.30
2023-02-14T11:37:34.320Z,30.53
2023-02-14T11:40:02.216Z,30.93
2023-02-14T11:42:51.605Z,28.33
2023-02-14T11:45:33.277Z,25.53
2023-02-14T11:48:36.614Z,24.50
2023-02-14T11:51:06.552Z,30.17
2023-02-14T11:53:55.969Z,28.47
2023-02-14T11:56:24.170Z,35.63
2023-02-14T11:58:58.064Z,27.20
2023-02-14T12:01:29.860Z,24.87
2023-02-14T12:03:59.877Z,31.23
2023-02-14T12:06:33.584Z,22.83
2023-02-14T12:09:12.640Z,24.33
2023-02-14T12:11:39.551Z,28.27
2023-02-14T12:14:20.028Z,26.93
2023-02-14T12:17:09.858Z,25.43
2023-02-14T12:19:53.438Z,28.33
2023-02-14T12:22:26.326Z,27.90
2023-02-14T12:25:02.199Z,25.63
2023-02-14T12:27:40.686Z,35.13
2023-02-14T12:30:15.964Z,29.70
2023-02-14T12:32:50.911Z,25.20
2023-02-14T12:35:43.499Z,41.17
2023-02-14T12:38:34.822Z,24.27
2023-02-14T12:41:07.124Z,22.90
2023-02-14T12:43:45.839Z,21.27
2023-02-14T12:49:35.544Z,25.03
2023-02-14T12:52:24.092Z,24.63
2023-02-14T12:55:35.455Z,27.63
2023-02-14T12:58:14.432Z,23.00
2023-02-14T13:01:08.965Z,20.17
2023-02-14T13:03:44.185Z,19.40
2023-02-14T13:06:34.279Z,20.47
2023-02-14T13:09:25.805Z,28.80
2023-02-14T13:12:16.566Z,22.13
2023-02-14T13:15:21.860Z,18.20
2023-02-14T13:18:13.871Z,18.03
2023-02-14T13:20:55.106Z,18.63
2023-02-14T13:23:44.286Z,21.70
2023-02-14T13:26:18.639Z,19.07
2023-02-14T13:29:10.388Z,19.13
2023-02-14T13:31:38.465Z,16.77
2023-02-14T13:34:20.203Z,23.13
2023-02-14T13:36:48.217Z,17.40
2023-02-14T13:39:30.040Z,20.40
2023-02-14T13:41:57.552Z,15.83
2023-02-14T13:44:43.779Z,20.20
2023-02-14T13:47:24.857Z,19.40
2023-02-14T13:49:59.243Z,13.17
2023-02-14T13:52:58.522Z,16.30
2023-02-14T13:55:34.059Z,14.67
2023-02-14T13:58:19.204Z,15.40
2023-02-14T14:00:51.348Z,19.00
2023-02-14T14:03:30.329Z,18.33
2023-02-14T14:06:03.363Z,24.07
2023-02-14T14:08:31.387Z,16.67
2023-02-14T14:11:09.943Z,22.03
2023-02-14T14:13:42.862Z,22.80
2023-02-14T14:16:27.441Z,16.77
2023-02-14T14:19:02.050Z,20.20
2023-02-14T14:21:29.953Z,17.20
2023-02-14T14:24:21.441Z,14.97
2023-02-14T14:27:12.212Z,13.77
2023-02-14T14:29:50.612Z,20.13
2023-02-14T14:32:25.091Z,17.90
2023-02-14T14:34:54.375Z,16.40
2023-02-14T14:37:25.045Z,24.93
2023-02-14T14:39:58.020Z,16.23
2023-02-14T14:42:31.627Z,22.00
2023-02-14T14:45:02.928Z,15.27
2023-02-14T14:47:40.370Z,18.33
2023-02-14T14:50:22.160Z,15.77
2023-02-14T14:52:53.352Z,13.80
2023-02-14T14:55:26.460Z,20.60
2023-02-14T14:57:56.873Z,15.27
2023-02-14T15:00:33.401Z,17.87
2023-02-14T15:03:11.882Z,21.20
2023-02-14T15:05:44.400Z,14.30
2023-02-14T15:08:35.548Z,31.33
2023-02-14T15:11:34.473Z,19.30
2023-02-14T15:14:03.312Z,13.03
2023-02-14T15:16:38.141Z,14.70
2023-02-14T15:19:17.230Z,14.30
2023-02-14T15:21:44.841Z,16.30
2023-02-14T15:24:15.914Z,19.27
2023-02-14T15:26:44.555Z,16.63
2023-02-14T15:29:30.454Z,18.03
2023-02-14T15:32:01.722Z,21.83
2023-02-14T15:34:32.869Z,18.57
2023-02-14T15:37:06.178Z,19.17
2023-02-14T15:39:37.636Z,18.87
2023-02-14T15:42:06.208Z,20.07
2023-02-14T15:44:33.136Z,29.03
2023-02-14T15:47:03.750Z,33.30
2023-02-14T15:49:34.587Z,20.17
2023-02-14T15:52:05.170Z,18.83
2023-02-14T15:54:45.978Z,17.97
2023-02-14T15:57:24.138Z,34.83
2023-02-14T15:59:51.460Z,29.00
2023-02-14T16:02:38.889Z,42.13
2023-02-14T16:05:22.124Z,34.20
2023-02-14T16:08:07.873Z,34.93
2023-02-14T16:10:38.522Z,36.73
2023-02-14T16:13:20.274Z,36.10
2023-02-14T16:16:08.228Z,34.70
2023-02-14T16:18:37.919Z,30.43
2023-02-14T16:21:26.809Z,38.17
2023-02-14T16:24:11.386Z,46.83
2023-02-14T16:26:42.087Z,38.03
2023-02-14T16:29:16.942Z,33.30
2023-02-14T16:34:42.137Z,35.63
2023-02-14T16:37:18.963Z,28.03
2023-02-14T16:39:46.020Z,20.73
2023-02-14T16:42:16.986Z,24.60
2023-02-14T16:44:45.263Z,24.85
2023-02-14T16:47:14.142Z,24.67
2023-02-14T16:49:41.224Z,30.30
2023-02-14T16:52:26.322Z,41.43
2023-02-14T16:54:53.529Z,27.67
2023-02-14T16:57:39.767Z,25.60
2023-02-14T17:00:09.323Z,25.50
2023-02-14T17:02:36.236Z,24.90
2023-02-14T17:05:02.997Z,37.93
2023-02-14T17:07:32.150Z,99.60
2023-02-14T17:10:05.311Z,42.17
2023-02-14T17:12:38.073Z,107.10
2023-02-14T17:15:11.743Z,88.67
2023-02-14T17:17:39.215Z,48.43
2023-02-14T17:20:08.320Z,29.30
2023-02-14T17:22:36.657Z,26.40
2023-02-14T17:25:05.276Z,25.27
2023-02-14T17:27:32.109Z,34.20
2023-02-14T17:29:58.975Z,26.63
2023-02-14T17:32:25.905Z,34.57
2023-02-14T17:34:53.797Z,28.80
2023-02-14T17:37:20.684Z,27.60
2023-02-14T17:39:47.397Z,41.47
2023-02-14T17:42:14.191Z,41.17
2023-02-14T17:44:40.897Z,42.83
2023-02-14T17:47:07.664Z,34.17
2023-02-14T17:49:34.477Z,44.53
2023-02-14T17:52:01.232Z,26.00
2023-02-14T17:54:28.004Z,32.50
2023-02-14T17:56:54.794Z,23.43
2023-02-14T17:59:21.557Z,30.23
2023-02-14T18:01:48.849Z,29.27
2023-02-14T18:04:15.632Z,43.20
2023-02-14T18:06:43.156Z,56.73
2023-02-14T18:09:10.128Z,55.13
2023-02-14T18:11:40.558Z,76.30
2023-02-14T18:14:07.362Z,84.47
2023-02-14T18:16:36.547Z,50.10
2023-02-14T18:19:04.744Z,38.97
2023-02-14T18:21:34.572Z,53.40
2023-02-14T18:24:02.765Z,42.30
2023-02-14T18:26:30.828Z,49.87
2023-02-14T18:28:58.520Z,57.03
2023-02-14T18:31:26.359Z,42.83
2023-02-14T18:33:53.211Z,54.87
2023-02-14T18:36:24.285Z,44.07
2023-02-14T18:38:51.263Z,42.27
2023-02-14T18:41:19.405Z,47.40
2023-02-14T18:43:46.501Z,52.13
2023-02-14T18:46:15.535Z,57.80
2023-02-14T18:48:42.667Z,50.37
2023-02-14T18:51:15.534Z,46.07
2023-02-14T18:53:44.528Z,50.47
2023-02-14T18:56:16.663Z,57.17
2023-02-14T18:58:47.583Z,49.53
2023-02-14T19:01:17.454Z,52.70
2023-02-14T19:03:45.065Z,56.27
2023-02-14T19:06:12.621Z,56.93
2023-02-14T19:08:40.833Z,47.37
2023-02-14T19:11:16.593Z,52.57
2023-02-14T19:13:48.827Z,47.80
2023-02-14T19:16:18.310Z,50.20
2023-02-14T19:18:45.471Z,47.90
2023-02-14T19:21:17.407Z,51.30
2023-02-14T19:23:44.632Z,66.23
2023-02-14T19:26:20.469Z,54.40
2023-02-14T19:28:49.359Z,53.40
2023-02-14T19:31:16.960Z,51.50
2023-02-14T19:33:45.656Z,48.80
2023-02-14T19:36:15.120Z,56.30
2023-02-14T19:38:43.732Z,54.30
2023-02-14T19:41:17.762Z,58.60
2023-02-14T19:43:45.986Z,55.67
2023-02-14T19:46:13.893Z,47.27
2023-02-14T19:48:40.817Z,42.73
2023-02-14T19:51:08.114Z,48.40
2023-02-14T19:53:35.523Z,48.10
2023-02-14T19:56:02.432Z,40.20
2023-02-14T19:58:29.185Z,37.13
2023-02-14T20:00:59.534Z,40.80
2023-02-14T20:03:26.881Z,41.80
2023-02-14T20:05:53.629Z,42.80
2023-02-14T20:08:20.408Z,44.63
2023-02-14T20:10:47.172Z,38.70
2023-02-14T20:13:13.876Z,43.07
2023-02-14T20:15:40.774Z,39.63
2023-02-14T20:18:07.709Z,39.33
2023-02-14T20:20:54.399Z,38.20
2023-02-14T20:23:21.115Z,55.90
2023-02-14T20:25:47.896Z,37.87
2023-02-14T20:28:14.688Z,41.40
2023-02-14T20:30:41.525Z,38.17
2023-02-14T20:33:08.376Z,38.50
2023-02-14T20:35:39.793Z,37.73
2023-02-14T20:38:07.756Z,37.00
2023-02-14T20:40:39.061Z,36.20
2023-02-14T20:43:06.119Z,35.63
2023-02-14T20:45:33.066Z,31.70
2023-02-14T20:48:04.062Z,30.60
2023-02-14T20:50:31.442Z,28.83
2023-02-14T20:52:58.398Z,30.80
2023-02-14T20:55:27.111Z,36.57
2023-02-14T20:57:54.388Z,31.73
2023-02-14T21:00:25.562Z,30.20
2023-02-14T21:02:52.718Z,29.67
2023-02-14T21:05:20.920Z,36.13
2023-02-14T21:07:48.131Z,30.13
2023-02-14T21:10:15.830Z,27.30
2023-02-14T21:12:42.601Z,28.23
2023-02-14T21:15:10.434Z,28.43
2023-02-14T21:17:37.909Z,36.00
2023-02-14T21:20:06.081Z,29.57
2023-02-14T21:22:32.916Z,29.03
2023-02-14T21:24:59.783Z,31.40
2023-02-14T21:27:26.743Z,29.30
2023-02-14T21:29:53.645Z,29.17
2023-02-14T21:32:20.505Z,29.50
2023-02-14T21:34:47.651Z,29.40
2023-02-14T21:37:14.573Z,31.37
2023-02-14T21:39:41.703Z,27.80
2023-02-14T21:42:11.397Z,29.20
2023-02-14T21:44:56.646Z,24.40
2023-02-14T21:47:23.498Z,24.33
2023-02-14T21:50:08.684Z,26.33
2023-02-14T21:52:35.520Z,26.10
2023-02-14T21:55:02.807Z,21.80
2023-02-14T21:57:31.451Z,30.43
2023-02-14T21:59:58.185Z,25.73
2023-02-14T22:02:24.927Z,25.30
2023-02-14T22:04:51.660Z,24.70
2023-02-14T22:07:18.426Z,23.37
2023-02-14T22:09:45.162Z,32.67
2023-02-14T22:12:11.939Z,28.10
2023-02-14T22:14:38.707Z,24.50
2023-02-14T22:17:05.427Z,22.50
2023-02-14T22:19:32.120Z,25.03
2023-02-14T22:21:58.976Z,23.77
2023-02-14T22:24:25.924Z,25.10
2023-02-14T22:26:52.800Z,26.87
2023-02-14T22:29:19.513Z,23.40
2023-02-14T22:31:46.648Z,23.10
2023-02-14T22:34:17.693Z,27.73
2023-02-14T22:36:44.622Z,23.87
2023-02-14T22:39:17.937Z,28.50
2023-02-14T22:41:45.282Z,26.33
2023-02-14T22:44:13.328Z,27.37
2023-02-14T22:46:40.368Z,34.10
2023-02-14T22:49:08.025Z,30.00
2023-02-14T22:51:40.074Z,28.40
2023-02-14T22:54:09.767Z,26.83
2023-02-14T22:56:42.054Z,25.97
2023-02-14T22:59:20.973Z,27.63
2023-02-14T23:01:49.182Z,27.43
2023-02-14T23:04:17.601Z,27.30
2023-02-14T23:06:44.815Z,26.90
2023-02-14T23:09:12.378Z,24.40
2023-02-14T23:11:40.821Z,27.23
2023-02-14T23:14:27.394Z,29.47
2023-02-14T23:17:14.953Z,23.90
2023-02-14T23:20:01.604Z,23.37
2023-02-14T23:22:33.769Z,22.87
2023-02-14T23:25:03.549Z,28.83
2023-02-14T23:27:43.118Z,25.30
2023-02-14T23:30:15.235Z,24.23
2023-02-14T23:32:42.195Z,23.53
2023-02-14T23:35:09.820Z,24.23
2023-02-14T23:37:37.020Z,25.57
2023-02-14T23:40:04.103Z,27.00
2023-02-14T23:42:30.853Z,23.10
2023-02-14T23:45:17.936Z,25.90
2023-02-14T23:47:44.852Z,26.07
2023-02-14T23:50:11.669Z,25.83
2023-02-14T23:52:41.613Z,25.87
2023-02-14T23:55:09.104Z,23.10
2023-02-14T23:57:35.929Z,23.83
